sensor_id;sensor_type;location;lat;lon;timestamp;temperature;humidity
10812;DHT22;5458;51.496;7.334;2022-12-18T00:01:13;-3.80;95.20
10812;DHT22;5458;51.496;7.334;2022-12-18T00:03:39;-3.80;95.00
10812;DHT22;5458;51.496;7.334;2022-12-18T00:06:05;-3.80;95.00
10812;DHT22;5458;51.496;7.334;2022-12-18T00:08:30;-3.80;95.10
10812;DHT22;5458;51.496;7.334;2022-12-18T00:11:06;-3.90;95.20
10812;DHT22;5458;51.496;7.334;2022-12-18T00:13:32;-3.80;95.30
10812;DHT22;5458;51.496;7.334;2022-12-18T00:16:03;-3.80;95.10
10812;DHT22;5458;51.496;7.334;2022-12-18T00:18:29;-3.90;94.80
10812;DHT22;5458;51.496;7.334;2022-12-18T00:20:58;-4.00;94.70
10812;DHT22;5458;51.496;7.334;2022-12-18T00:23:24;-4.00;94.90
10812;DHT22;5458;51.496;7.334;2022-12-18T00:25:50;-4.00;95.00
10812;DHT22;5458;51.496;7.334;2022-12-18T00:28:15;-4.00;95.00
10812;DHT22;5458;51.496;7.334;2022-12-18T00:30:41;-4.00;94.90
10812;DHT22;5458;51.496;7.334;2022-12-18T00:33:06;-4.00;94.90
10812;DHT22;5458;51.496;7.334;2022-12-18T00:35:32;-4.00;94.80
10812;DHT22;5458;51.496;7.334;2022-12-18T00:37:57;-4.00;95.00
10812;DHT22;5458;51.496;7.334;2022-12-18T00:40:23;-4.00;94.90
10812;DHT22;5458;51.496;7.334;2022-12-18T00:42:49;-4.00;94.80
10812;DHT22;5458;51.496;7.334;2022-12-18T00:45:28;-4.00;94.80
10812;DHT22;5458;51.496;7.334;2022-12-18T00:47:54;-4.10;94.60
10812;DHT22;5458;51.496;7.334;2022-12-18T00:50:20;-4.10;94.50
10812;DHT22;5458;51.496;7.334;2022-12-18T00:52:46;-4.10;94.40
10812;DHT22;5458;51.496;7.334;2022-12-18T00:55:12;-4.20;94.40
10812;DHT22;5458;51.496;7.334;2022-12-18T00:57:38;-4.10;94.40
10812;DHT22;5458;51.496;7.334;2022-12-18T01:00:05;-4.20;94.10
10812;DHT22;5458;51.496;7.334;2022-12-18T01:02:31;-4.20;94.10
10812;DHT22;5458;51.496;7.334;2022-12-18T01:04:57;-4.30;94.00
10812;DHT22;5458;51.496;7.334;2022-12-18T01:07:22;-4.40;94.20
10812;DHT22;5458;51.496;7.334;2022-12-18T01:09:48;-4.40;94.50
10812;DHT22;5458;51.496;7.334;2022-12-18T01:12:13;-4.40;94.50
10812;DHT22;5458;51.496;7.334;2022-12-18T01:14:39;-4.40;94.40
10812;DHT22;5458;51.496;7.334;2022-12-18T01:17:05;-4.40;94.20
10812;DHT22;5458;51.496;7.334;2022-12-18T01:19:30;-4.40;94.10
10812;DHT22;5458;51.496;7.334;2022-12-18T01:21:56;-4.50;94.20
10812;DHT22;5458;51.496;7.334;2022-12-18T01:24:21;-4.50;94.10
10812;DHT22;5458;51.496;7.334;2022-12-18T01:26:47;-4.50;94.20
10812;DHT22;5458;51.496;7.334;2022-12-18T01:29:13;-4.50;94.30
10812;DHT22;5458;51.496;7.334;2022-12-18T01:31:39;-4.50;94.30
10812;DHT22;5458;51.496;7.334;2022-12-18T01:34:05;-4.50;94.20
10812;DHT22;5458;51.496;7.334;2022-12-18T01:36:33;-4.50;94.10
10812;DHT22;5458;51.496;7.334;2022-12-18T01:39:04;-4.50;94.10
10812;DHT22;5458;51.496;7.334;2022-12-18T01:41:32;-4.50;93.90
10812;DHT22;5458;51.496;7.334;2022-12-18T01:50:12;-4.50;94.10
10812;DHT22;5458;51.496;7.334;2022-12-18T01:52:41;-4.60;94.00
10812;DHT22;5458;51.496;7.334;2022-12-18T01:55:09;-4.50;94.10
10812;DHT22;5458;51.496;7.334;2022-12-18T01:57:36;-4.50;94.00
10812;DHT22;5458;51.496;7.334;2022-12-18T02:00:16;-4.60;93.70
10812;DHT22;5458;51.496;7.334;2022-12-18T02:02:44;-4.60;93.90
10812;DHT22;5458;51.496;7.334;2022-12-18T02:05:12;-4.60;94.00
10812;DHT22;5458;51.496;7.334;2022-12-18T02:07:48;-4.60;94.10
10812;DHT22;5458;51.496;7.334;2022-12-18T02:10:29;-4.60;94.20
10812;DHT22;5458;51.496;7.334;2022-12-18T02:13:27;-4.70;94.10
10812;DHT22;5458;51.496;7.334;2022-12-18T02:16:02;-4.70;94.20
10812;DHT22;5458;51.496;7.334;2022-12-18T02:18:36;-4.70;94.30
10812;DHT22;5458;51.496;7.334;2022-12-18T02:21:29;-4.60;94.50
10812;DHT22;5458;51.496;7.334;2022-12-18T02:24:12;-4.60;93.90
10812;DHT22;5458;51.496;7.334;2022-12-18T02:27:00;-4.70;93.90
10812;DHT22;5458;51.496;7.334;2022-12-18T02:29:40;-4.70;93.80
10812;DHT22;5458;51.496;7.334;2022-12-18T02:32:11;-4.70;93.90
10812;DHT22;5458;51.496;7.334;2022-12-18T02:34:39;-4.70;93.90
10812;DHT22;5458;51.496;7.334;2022-12-18T02:37:09;-4.80;93.80
10812;DHT22;5458;51.496;7.334;2022-12-18T02:39:37;-4.80;93.80
10812;DHT22;5458;51.496;7.334;2022-12-18T02:42:04;-4.80;94.00
10812;DHT22;5458;51.496;7.334;2022-12-18T02:44:34;-4.80;94.10
10812;DHT22;5458;51.496;7.334;2022-12-18T02:47:00;-4.80;94.10
10812;DHT22;5458;51.496;7.334;2022-12-18T02:58:18;-4.80;94.10
10812;DHT22;5458;51.496;7.334;2022-12-18T03:00:41;-4.80;94.10
10812;DHT22;5458;51.496;7.334;2022-12-18T03:03:16;-4.80;94.10
10812;DHT22;5458;51.496;7.334;2022-12-18T03:05:52;-4.80;94.10
10812;DHT22;5458;51.496;7.334;2022-12-18T03:08:24;-4.80;94.20
10812;DHT22;5458;51.496;7.334;2022-12-18T03:10:58;-4.80;94.50
10812;DHT22;5458;51.496;7.334;2022-12-18T03:13:33;-4.80;94.70
10812;DHT22;5458;51.496;7.334;2022-12-18T03:16:01;-4.70;94.90
10812;DHT22;5458;51.496;7.334;2022-12-18T03:20:55;-4.70;94.50
10812;DHT22;5458;51.496;7.334;2022-12-18T03:23:26;-4.70;94.50
10812;DHT22;5458;51.496;7.334;2022-12-18T03:25:57;-4.80;94.40
10812;DHT22;5458;51.496;7.334;2022-12-18T03:28:28;-4.80;94.30
10812;DHT22;5458;51.496;7.334;2022-12-18T03:30:58;-4.90;94.40
10812;DHT22;5458;51.496;7.334;2022-12-18T03:33:29;-4.90;94.40
10812;DHT22;5458;51.496;7.334;2022-12-18T03:35:57;-4.90;94.30
10812;DHT22;5458;51.496;7.334;2022-12-18T03:38:22;-4.90;94.40
10812;DHT22;5458;51.496;7.334;2022-12-18T03:46:08;-4.90;93.80
10812;DHT22;5458;51.496;7.334;2022-12-18T03:48:41;-5.00;94.00
10812;DHT22;5458;51.496;7.334;2022-12-18T03:51:14;-5.00;93.70
10812;DHT22;5458;51.496;7.334;2022-12-18T03:53:50;-5.00;93.60
10812;DHT22;5458;51.496;7.334;2022-12-18T03:56:18;-5.00;93.70
10812;DHT22;5458;51.496;7.334;2022-12-18T03:58:46;-5.10;93.70
10812;DHT22;5458;51.496;7.334;2022-12-18T04:01:15;-5.10;93.70
10812;DHT22;5458;51.496;7.334;2022-12-18T04:03:42;-5.10;93.80
10812;DHT22;5458;51.496;7.334;2022-12-18T04:06:09;-5.10;93.80
10812;DHT22;5458;51.496;7.334;2022-12-18T04:08:36;-5.10;93.90
10812;DHT22;5458;51.496;7.334;2022-12-18T04:11:02;-5.10;93.90
10812;DHT22;5458;51.496;7.334;2022-12-18T04:13:30;-5.10;94.00
10812;DHT22;5458;51.496;7.334;2022-12-18T04:15:57;-5.10;93.70
10812;DHT22;5458;51.496;7.334;2022-12-18T04:18:22;-5.10;93.70
10812;DHT22;5458;51.496;7.334;2022-12-18T04:20:48;-5.20;93.70
10812;DHT22;5458;51.496;7.334;2022-12-18T04:23:14;-5.20;93.80
10812;DHT22;5458;51.496;7.334;2022-12-18T04:25:39;-5.20;93.70
10812;DHT22;5458;51.496;7.334;2022-12-18T04:28:05;-5.20;93.80
10812;DHT22;5458;51.496;7.334;2022-12-18T04:30:30;-5.20;93.90
10812;DHT22;5458;51.496;7.334;2022-12-18T04:32:56;-5.30;93.90
10812;DHT22;5458;51.496;7.334;2022-12-18T04:35:21;-5.20;94.10
10812;DHT22;5458;51.496;7.334;2022-12-18T04:37:47;-5.20;93.80
10812;DHT22;5458;51.496;7.334;2022-12-18T04:40:12;-5.20;93.60
10812;DHT22;5458;51.496;7.334;2022-12-18T04:42:39;-5.30;93.60
10812;DHT22;5458;51.496;7.334;2022-12-18T04:45:06;-5.30;93.40
10812;DHT22;5458;51.496;7.334;2022-12-18T04:47:32;-5.30;93.20
10812;DHT22;5458;51.496;7.334;2022-12-18T04:49:57;-5.30;93.20
10812;DHT22;5458;51.496;7.334;2022-12-18T04:52:23;-5.30;93.40
10812;DHT22;5458;51.496;7.334;2022-12-18T04:54:49;-5.40;93.40
10812;DHT22;5458;51.496;7.334;2022-12-18T04:57:14;-5.40;93.40
10812;DHT22;5458;51.496;7.334;2022-12-18T04:59:40;-5.40;93.50
10812;DHT22;5458;51.496;7.334;2022-12-18T05:02:06;-5.40;93.60
10812;DHT22;5458;51.496;7.334;2022-12-18T05:04:31;-5.30;93.70
10812;DHT22;5458;51.496;7.334;2022-12-18T05:06:57;-5.30;93.70
10812;DHT22;5458;51.496;7.334;2022-12-18T05:09:23;-5.30;93.70
10812;DHT22;5458;51.496;7.334;2022-12-18T05:11:48;-5.30;93.70
10812;DHT22;5458;51.496;7.334;2022-12-18T05:14:15;-5.30;93.70
10812;DHT22;5458;51.496;7.334;2022-12-18T05:16:40;-5.30;93.70
10812;DHT22;5458;51.496;7.334;2022-12-18T05:19:06;-5.30;93.80
10812;DHT22;5458;51.496;7.334;2022-12-18T05:21:32;-5.30;93.80
10812;DHT22;5458;51.496;7.334;2022-12-18T05:23:57;-5.30;93.70
10812;DHT22;5458;51.496;7.334;2022-12-18T05:26:23;-5.30;93.80
10812;DHT22;5458;51.496;7.334;2022-12-18T05:28:48;-5.30;93.90
10812;DHT22;5458;51.496;7.334;2022-12-18T05:31:14;-5.30;93.90
10812;DHT22;5458;51.496;7.334;2022-12-18T05:33:40;-5.30;94.00
10812;DHT22;5458;51.496;7.334;2022-12-18T05:36:07;-5.30;94.10
10812;DHT22;5458;51.496;7.334;2022-12-18T05:38:35;-5.20;94.40
10812;DHT22;5458;51.496;7.334;2022-12-18T05:41:01;-5.20;94.60
10812;DHT22;5458;51.496;7.334;2022-12-18T05:43:27;-5.20;94.80
10812;DHT22;5458;51.496;7.334;2022-12-18T05:45:54;-5.10;95.10
10812;DHT22;5458;51.496;7.334;2022-12-18T05:48:20;-5.10;95.40
10812;DHT22;5458;51.496;7.334;2022-12-18T05:50:47;-5.00;95.80
10812;DHT22;5458;51.496;7.334;2022-12-18T05:53:15;-5.00;95.80
10812;DHT22;5458;51.496;7.334;2022-12-18T05:55:42;-5.00;96.00
10812;DHT22;5458;51.496;7.334;2022-12-18T05:58:09;-5.00;96.00
10812;DHT22;5458;51.496;7.334;2022-12-18T06:00:38;-5.00;96.10
10812;DHT22;5458;51.496;7.334;2022-12-18T06:03:07;-5.00;95.90
10812;DHT22;5458;51.496;7.334;2022-12-18T06:05:37;-4.90;96.00
10812;DHT22;5458;51.496;7.334;2022-12-18T06:08:03;-5.00;96.00
10812;DHT22;5458;51.496;7.334;2022-12-18T06:10:29;-4.90;96.10
10812;DHT22;5458;51.496;7.334;2022-12-18T06:12:54;-4.90;96.00
10812;DHT22;5458;51.496;7.334;2022-12-18T06:15:20;-4.90;96.00
10812;DHT22;5458;51.496;7.334;2022-12-18T06:17:45;-5.00;95.90
10812;DHT22;5458;51.496;7.334;2022-12-18T06:20:11;-5.00;95.70
10812;DHT22;5458;51.496;7.334;2022-12-18T06:22:36;-5.00;95.60
10812;DHT22;5458;51.496;7.334;2022-12-18T06:25:03;-5.00;95.40
10812;DHT22;5458;51.496;7.334;2022-12-18T06:27:28;-5.00;95.20
10812;DHT22;5458;51.496;7.334;2022-12-18T06:29:54;-5.00;95.30
10812;DHT22;5458;51.496;7.334;2022-12-18T06:32:19;-5.10;95.20
10812;DHT22;5458;51.496;7.334;2022-12-18T06:34:45;-5.10;95.20
10812;DHT22;5458;51.496;7.334;2022-12-18T06:37:10;-5.10;95.30
10812;DHT22;5458;51.496;7.334;2022-12-18T06:39:36;-5.20;95.30
10812;DHT22;5458;51.496;7.334;2022-12-18T06:42:03;-5.10;95.20
10812;DHT22;5458;51.496;7.334;2022-12-18T06:44:28;-5.20;95.10
10812;DHT22;5458;51.496;7.334;2022-12-18T06:46:54;-5.20;95.00
10812;DHT22;5458;51.496;7.334;2022-12-18T06:49:20;-5.20;95.00
10812;DHT22;5458;51.496;7.334;2022-12-18T06:51:46;-5.20;95.10
10812;DHT22;5458;51.496;7.334;2022-12-18T06:54:11;-5.20;95.10
10812;DHT22;5458;51.496;7.334;2022-12-18T06:56:37;-5.20;95.10
10812;DHT22;5458;51.496;7.334;2022-12-18T06:59:03;-5.20;95.20
10812;DHT22;5458;51.496;7.334;2022-12-18T07:01:28;-5.20;95.10
10812;DHT22;5458;51.496;7.334;2022-12-18T07:03:55;-5.20;94.90
10812;DHT22;5458;51.496;7.334;2022-12-18T07:06:23;-5.30;94.80
10812;DHT22;5458;51.496;7.334;2022-12-18T07:08:49;-5.30;94.90
10812;DHT22;5458;51.496;7.334;2022-12-18T07:11:16;-5.30;94.90
10812;DHT22;5458;51.496;7.334;2022-12-18T07:13:42;-5.30;95.00
10812;DHT22;5458;51.496;7.334;2022-12-18T07:16:10;-5.20;94.90
10812;DHT22;5458;51.496;7.334;2022-12-18T07:18:36;-5.20;94.80
10812;DHT22;5458;51.496;7.334;2022-12-18T07:21:06;-5.20;94.80
10812;DHT22;5458;51.496;7.334;2022-12-18T07:23:33;-5.20;94.80
10812;DHT22;5458;51.496;7.334;2022-12-18T07:26:08;-5.20;94.80
10812;DHT22;5458;51.496;7.334;2022-12-18T07:28:35;-5.20;94.80
10812;DHT22;5458;51.496;7.334;2022-12-18T07:31:05;-5.20;95.00
10812;DHT22;5458;51.496;7.334;2022-12-18T07:33:32;-5.20;94.80
10812;DHT22;5458;51.496;7.334;2022-12-18T07:35:59;-5.10;94.90
10812;DHT22;5458;51.496;7.334;2022-12-18T07:38:25;-5.20;94.90
10812;DHT22;5458;51.496;7.334;2022-12-18T07:40:50;-5.20;94.80
10812;DHT22;5458;51.496;7.334;2022-12-18T07:43:16;-5.10;94.90
10812;DHT22;5458;51.496;7.334;2022-12-18T07:45:42;-5.10;94.90
10812;DHT22;5458;51.496;7.334;2022-12-18T07:48:08;-5.00;95.00
10812;DHT22;5458;51.496;7.334;2022-12-18T07:50:33;-4.90;95.10
10812;DHT22;5458;51.496;7.334;2022-12-18T07:52:59;-4.90;95.10
10812;DHT22;5458;51.496;7.334;2022-12-18T07:55:29;-4.80;95.40
10812;DHT22;5458;51.496;7.334;2022-12-18T07:57:55;-4.70;95.90
10812;DHT22;5458;51.496;7.334;2022-12-18T08:00:20;-4.50;96.40
10812;DHT22;5458;51.496;7.334;2022-12-18T08:02:46;-4.40;96.70
10812;DHT22;5458;51.496;7.334;2022-12-18T08:05:12;-4.30;96.70
10812;DHT22;5458;51.496;7.334;2022-12-18T08:07:38;-4.20;96.90
10812;DHT22;5458;51.496;7.334;2022-12-18T08:10:04;-4.00;97.10
10812;DHT22;5458;51.496;7.334;2022-12-18T08:12:30;-3.90;97.10
10812;DHT22;5458;51.496;7.334;2022-12-18T08:14:56;-3.80;97.30
10812;DHT22;5458;51.496;7.334;2022-12-18T08:17:21;-3.60;97.40
10812;DHT22;5458;51.496;7.334;2022-12-18T08:19:47;-3.50;97.40
10812;DHT22;5458;51.496;7.334;2022-12-18T08:22:12;-3.40;97.40
10812;DHT22;5458;51.496;7.334;2022-12-18T08:24:38;-3.30;97.20
10812;DHT22;5458;51.496;7.334;2022-12-18T08:27:03;-3.20;97.30
10812;DHT22;5458;51.496;7.334;2022-12-18T08:29:29;-3.10;97.40
10812;DHT22;5458;51.496;7.334;2022-12-18T08:31:55;-3.00;97.70
10812;DHT22;5458;51.496;7.334;2022-12-18T08:34:21;-2.80;98.00
10812;DHT22;5458;51.496;7.334;2022-12-18T08:36:47;-2.60;98.30
10812;DHT22;5458;51.496;7.334;2022-12-18T08:39:12;-2.50;98.40
10812;DHT22;5458;51.496;7.334;2022-12-18T08:41:38;-2.30;98.50
10812;DHT22;5458;51.496;7.334;2022-12-18T08:44:03;-2.10;98.70
10812;DHT22;5458;51.496;7.334;2022-12-18T08:46:47;-2.00;98.60
10812;DHT22;5458;51.496;7.334;2022-12-18T08:49:13;-1.80;98.40
10812;DHT22;5458;51.496;7.334;2022-12-18T08:51:39;-1.70;98.40
10812;DHT22;5458;51.496;7.334;2022-12-18T08:54:05;-1.50;98.50
10812;DHT22;5458;51.496;7.334;2022-12-18T08:56:31;-1.40;98.40
10812;DHT22;5458;51.496;7.334;2022-12-18T08:58:57;-1.20;98.50
10812;DHT22;5458;51.496;7.334;2022-12-18T09:01:23;-1.10;98.30
10812;DHT22;5458;51.496;7.334;2022-12-18T09:03:50;-1.00;98.30
10812;DHT22;5458;51.496;7.334;2022-12-18T09:06:18;-0.80;98.20
10812;DHT22;5458;51.496;7.334;2022-12-18T09:08:44;-0.50;98.30
10812;DHT22;5458;51.496;7.334;2022-12-18T09:11:17;-0.20;97.80
10812;DHT22;5458;51.496;7.334;2022-12-18T09:13:43;0.20;97.60
10812;DHT22;5458;51.496;7.334;2022-12-18T09:16:09;0.70;97.40
10812;DHT22;5458;51.496;7.334;2022-12-18T09:18:35;1.60;96.70
10812;DHT22;5458;51.496;7.334;2022-12-18T09:21:08;3.10;95.20
10812;DHT22;5458;51.496;7.334;2022-12-18T09:23:33;4.60;91.80
10812;DHT22;5458;51.496;7.334;2022-12-18T09:25:59;5.40;90.30
10812;DHT22;5458;51.496;7.334;2022-12-18T09:28:25;5.90;87.40
10812;DHT22;5458;51.496;7.334;2022-12-18T09:30:51;6.40;85.00
10812;DHT22;5458;51.496;7.334;2022-12-18T09:33:17;6.70;82.90
10812;DHT22;5458;51.496;7.334;2022-12-18T09:35:44;6.60;83.30
10812;DHT22;5458;51.496;7.334;2022-12-18T09:38:17;6.30;83.50
10812;DHT22;5458;51.496;7.334;2022-12-18T09:40:50;6.30;83.90
10812;DHT22;5458;51.496;7.334;2022-12-18T09:43:46;6.80;84.30
10812;DHT22;5458;51.496;7.334;2022-12-18T09:46:21;8.40;80.80
10812;DHT22;5458;51.496;7.334;2022-12-18T09:48:52;9.50;75.70
10812;DHT22;5458;51.496;7.334;2022-12-18T09:51:27;10.10;70.30
10812;DHT22;5458;51.496;7.334;2022-12-18T09:53:59;10.10;67.00
10812;DHT22;5458;51.496;7.334;2022-12-18T09:56:28;9.70;67.90
10812;DHT22;5458;51.496;7.334;2022-12-18T09:59:01;9.00;67.80
10812;DHT22;5458;51.496;7.334;2022-12-18T10:01:28;8.30;69.30
10812;DHT22;5458;51.496;7.334;2022-12-18T10:03:54;7.80;70.30
10812;DHT22;5458;51.496;7.334;2022-12-18T10:12:26;6.60;75.20
10812;DHT22;5458;51.496;7.334;2022-12-18T10:15:16;6.20;75.70
10812;DHT22;5458;51.496;7.334;2022-12-18T10:20:45;5.40;79.70
10812;DHT22;5458;51.496;7.334;2022-12-18T10:25:55;4.60;85.10
10812;DHT22;5458;51.496;7.334;2022-12-18T10:28:26;4.20;87.50
10812;DHT22;5458;51.496;7.334;2022-12-18T10:30:52;4.00;89.30
10812;DHT22;5458;51.496;7.334;2022-12-18T10:33:20;3.80;90.30
10812;DHT22;5458;51.496;7.334;2022-12-18T10:35:49;3.60;90.70
10812;DHT22;5458;51.496;7.334;2022-12-18T10:40:50;3.40;91.10
10812;DHT22;5458;51.496;7.334;2022-12-18T10:43:20;3.40;91.70
10812;DHT22;5458;51.496;7.334;2022-12-18T10:48:24;3.20;93.20
10812;DHT22;5458;51.496;7.334;2022-12-18T10:50:50;3.10;94.00
10812;DHT22;5458;51.496;7.334;2022-12-18T10:53:23;3.00;93.30
10812;DHT22;5458;51.496;7.334;2022-12-18T10:55:49;3.00;91.30
10812;DHT22;5458;51.496;7.334;2022-12-18T10:58:30;3.00;91.50
10812;DHT22;5458;51.496;7.334;2022-12-18T11:03:44;3.10;91.40
10812;DHT22;5458;51.496;7.334;2022-12-18T11:06:11;3.20;90.80
10812;DHT22;5458;51.496;7.334;2022-12-18T11:08:37;3.20;90.80
10812;DHT22;5458;51.496;7.334;2022-12-18T11:11:07;3.30;91.40
10812;DHT22;5458;51.496;7.334;2022-12-18T11:13:33;3.40;91.90
10812;DHT22;5458;51.496;7.334;2022-12-18T11:15:58;3.40;91.70
10812;DHT22;5458;51.496;7.334;2022-12-18T11:18:33;3.40;90.80
10812;DHT22;5458;51.496;7.334;2022-12-18T11:21:06;3.40;90.80
10812;DHT22;5458;51.496;7.334;2022-12-18T11:23:34;3.50;91.00
10812;DHT22;5458;51.496;7.334;2022-12-18T11:26:02;3.50;91.00
10812;DHT22;5458;51.496;7.334;2022-12-18T11:28:44;3.50;90.20
10812;DHT22;5458;51.496;7.334;2022-12-18T11:31:19;3.50;90.40
10812;DHT22;5458;51.496;7.334;2022-12-18T11:36:45;3.60;91.50
10812;DHT22;5458;51.496;7.334;2022-12-18T11:39:33;3.50;91.30
10812;DHT22;5458;51.496;7.334;2022-12-18T11:42:05;3.50;90.90
10812;DHT22;5458;51.496;7.334;2022-12-18T11:45:38;3.40;90.90
10812;DHT22;5458;51.496;7.334;2022-12-18T11:48:06;3.30;91.00
10812;DHT22;5458;51.496;7.334;2022-12-18T11:50:51;3.30;91.20
10812;DHT22;5458;51.496;7.334;2022-12-18T11:53:18;3.30;91.40
10812;DHT22;5458;51.496;7.334;2022-12-18T11:56:15;3.20;91.30
10812;DHT22;5458;51.496;7.334;2022-12-18T12:01:59;3.20;92.00
10812;DHT22;5458;51.496;7.334;2022-12-18T12:17:19;3.20;92.40
10812;DHT22;5458;51.496;7.334;2022-12-18T12:20:04;3.20;92.30
10812;DHT22;5458;51.496;7.334;2022-12-18T12:25:40;3.30;92.30
10812;DHT22;5458;51.496;7.334;2022-12-18T12:39:18;3.30;91.90
10812;DHT22;5458;51.496;7.334;2022-12-18T12:41:46;3.30;92.10
10812;DHT22;5458;51.496;7.334;2022-12-18T12:44:38;3.30;92.10
10812;DHT22;5458;51.496;7.334;2022-12-18T12:47:18;3.20;92.10
10812;DHT22;5458;51.496;7.334;2022-12-18T12:49:46;3.30;92.30
10812;DHT22;5458;51.496;7.334;2022-12-18T12:52:33;3.30;92.60
10812;DHT22;5458;51.496;7.334;2022-12-18T12:55:02;3.20;92.80
10812;DHT22;5458;51.496;7.334;2022-12-18T12:57:41;3.30;93.00
10812;DHT22;5458;51.496;7.334;2022-12-18T13:00:15;3.20;93.10
10812;DHT22;5458;51.496;7.334;2022-12-18T13:02:49;3.20;93.20
10812;DHT22;5458;51.496;7.334;2022-12-18T13:05:38;3.20;93.50
10812;DHT22;5458;51.496;7.334;2022-12-18T13:08:10;3.20;93.80
10812;DHT22;5458;51.496;7.334;2022-12-18T13:10:39;3.30;93.90
10812;DHT22;5458;51.496;7.334;2022-12-18T13:13:10;3.20;94.00
10812;DHT22;5458;51.496;7.334;2022-12-18T13:15:45;3.20;94.20
10812;DHT22;5458;51.496;7.334;2022-12-18T13:20:49;3.20;94.60
10812;DHT22;5458;51.496;7.334;2022-12-18T13:31:57;3.10;95.00
10812;DHT22;5458;51.496;7.334;2022-12-18T13:34:20;3.10;95.10
10812;DHT22;5458;51.496;7.334;2022-12-18T13:36:46;3.10;95.10
10812;DHT22;5458;51.496;7.334;2022-12-18T13:41:44;3.00;95.20
10812;DHT22;5458;51.496;7.334;2022-12-18T13:44:36;3.00;95.30
10812;DHT22;5458;51.496;7.334;2022-12-18T13:47:05;3.00;95.80
10812;DHT22;5458;51.496;7.334;2022-12-18T13:49:49;2.90;95.70
10812;DHT22;5458;51.496;7.334;2022-12-18T13:52:20;2.90;96.00
10812;DHT22;5458;51.496;7.334;2022-12-18T13:54:52;2.90;96.30
10812;DHT22;5458;51.496;7.334;2022-12-18T13:57:33;2.90;96.40
10812;DHT22;5458;51.496;7.334;2022-12-18T14:02:45;2.80;95.90
10812;DHT22;5458;51.496;7.334;2022-12-18T14:07:53;2.90;95.30
10812;DHT22;5458;51.496;7.334;2022-12-18T14:10:20;2.90;94.90
10812;DHT22;5458;51.496;7.334;2022-12-18T14:12:50;2.90;94.60
10812;DHT22;5458;51.496;7.334;2022-12-18T14:15:40;3.00;94.30
10812;DHT22;5458;51.496;7.334;2022-12-18T14:21:29;3.00;92.40
10812;DHT22;5458;51.496;7.334;2022-12-18T14:24:16;3.00;91.60
10812;DHT22;5458;51.496;7.334;2022-12-18T14:26:43;3.00;90.30
10812;DHT22;5458;51.496;7.334;2022-12-18T14:29:26;3.00;90.60
10812;DHT22;5458;51.496;7.334;2022-12-18T14:32:09;3.10;90.50
10812;DHT22;5458;51.496;7.334;2022-12-18T14:34:36;3.10;90.40
10812;DHT22;5458;51.496;7.334;2022-12-18T14:37:01;3.10;90.30
10812;DHT22;5458;51.496;7.334;2022-12-18T14:39:27;3.10;90.00
10812;DHT22;5458;51.496;7.334;2022-12-18T14:41:52;3.10;87.40
10812;DHT22;5458;51.496;7.334;2022-12-18T14:44:18;3.10;87.70
10812;DHT22;5458;51.496;7.334;2022-12-18T14:46:45;3.10;87.00
10812;DHT22;5458;51.496;7.334;2022-12-18T14:49:27;3.20;86.70
10812;DHT22;5458;51.496;7.334;2022-12-18T14:52:02;3.20;88.90
10812;DHT22;5458;51.496;7.334;2022-12-18T14:54:29;3.10;88.70
10812;DHT22;5458;51.496;7.334;2022-12-18T14:57:20;3.10;87.30
10812;DHT22;5458;51.496;7.334;2022-12-18T14:59:46;3.00;88.10
10812;DHT22;5458;51.496;7.334;2022-12-18T15:02:28;3.00;88.50
10812;DHT22;5458;51.496;7.334;2022-12-18T15:07:44;3.00;89.20
10812;DHT22;5458;51.496;7.334;2022-12-18T15:10:25;3.00;87.50
10812;DHT22;5458;51.496;7.334;2022-12-18T15:15:52;2.90;91.10
10812;DHT22;5458;51.496;7.334;2022-12-18T15:18:20;2.90;90.40
10812;DHT22;5458;51.496;7.334;2022-12-18T15:23:21;2.80;91.40
10812;DHT22;5458;51.496;7.334;2022-12-18T15:26:07;2.80;91.50
10812;DHT22;5458;51.496;7.334;2022-12-18T15:28:37;2.80;91.90
10812;DHT22;5458;51.496;7.334;2022-12-18T15:33:38;2.80;91.30
10812;DHT22;5458;51.496;7.334;2022-12-18T15:36:08;2.80;89.00
10812;DHT22;5458;51.496;7.334;2022-12-18T15:38:34;2.80;86.60
10812;DHT22;5458;51.496;7.334;2022-12-18T15:41:00;2.80;86.40
10812;DHT22;5458;51.496;7.334;2022-12-18T15:43:26;2.80;84.90
10812;DHT22;5458;51.496;7.334;2022-12-18T15:46:11;2.90;82.50
10812;DHT22;5458;51.496;7.334;2022-12-18T15:48:42;2.90;83.70
10812;DHT22;5458;51.496;7.334;2022-12-18T15:51:20;2.90;83.20
10812;DHT22;5458;51.496;7.334;2022-12-18T15:53:48;2.90;81.50
10812;DHT22;5458;51.496;7.334;2022-12-18T15:56:16;2.80;82.50
10812;DHT22;5458;51.496;7.334;2022-12-18T15:59:00;2.90;82.20
10812;DHT22;5458;51.496;7.334;2022-12-18T16:01:29;2.80;82.00
10812;DHT22;5458;51.496;7.334;2022-12-18T16:03:55;2.90;82.30
10812;DHT22;5458;51.496;7.334;2022-12-18T16:06:22;2.80;83.40
10812;DHT22;5458;51.496;7.334;2022-12-18T16:08:48;2.90;83.90
10812;DHT22;5458;51.496;7.334;2022-12-18T16:11:25;2.80;83.80
10812;DHT22;5458;51.496;7.334;2022-12-18T16:14:24;2.80;84.90
10812;DHT22;5458;51.496;7.334;2022-12-18T16:17:01;2.80;84.50
10812;DHT22;5458;51.496;7.334;2022-12-18T16:19:27;2.80;85.70
10812;DHT22;5458;51.496;7.334;2022-12-18T16:21:55;2.80;86.40
10812;DHT22;5458;51.496;7.334;2022-12-18T16:24:27;2.70;86.90
10812;DHT22;5458;51.496;7.334;2022-12-18T16:26:53;2.70;86.90
10812;DHT22;5458;51.496;7.334;2022-12-18T16:29:19;2.70;86.90
10812;DHT22;5458;51.496;7.334;2022-12-18T16:32:00;2.70;87.80
10812;DHT22;5458;51.496;7.334;2022-12-18T16:36:57;2.70;89.10
10812;DHT22;5458;51.496;7.334;2022-12-18T16:39:23;2.70;89.80
10812;DHT22;5458;51.496;7.334;2022-12-18T16:41:49;2.70;90.10
10812;DHT22;5458;51.496;7.334;2022-12-18T16:44:15;2.70;90.30
10812;DHT22;5458;51.496;7.334;2022-12-18T16:46:41;2.70;90.30
10812;DHT22;5458;51.496;7.334;2022-12-18T16:49:14;2.80;90.50
10812;DHT22;5458;51.496;7.334;2022-12-18T16:51:41;2.80;90.50
10812;DHT22;5458;51.496;7.334;2022-12-18T16:54:07;2.80;90.50
10812;DHT22;5458;51.496;7.334;2022-12-18T16:56:33;2.80;90.70
10812;DHT22;5458;51.496;7.334;2022-12-18T16:59:00;2.90;90.90
10812;DHT22;5458;51.496;7.334;2022-12-18T17:01:28;2.80;91.00
10812;DHT22;5458;51.496;7.334;2022-12-18T17:04:04;2.80;91.20
10812;DHT22;5458;51.496;7.334;2022-12-18T17:06:32;2.80;91.60
10812;DHT22;5458;51.496;7.334;2022-12-18T17:08:59;2.80;91.70
10812;DHT22;5458;51.496;7.334;2022-12-18T17:11:27;2.80;92.00
10812;DHT22;5458;51.496;7.334;2022-12-18T17:13:53;2.70;92.10
10812;DHT22;5458;51.496;7.334;2022-12-18T17:16:19;2.70;92.30
10812;DHT22;5458;51.496;7.334;2022-12-18T17:18:45;2.80;92.90
10812;DHT22;5458;51.496;7.334;2022-12-18T17:21:11;2.70;92.80
10812;DHT22;5458;51.496;7.334;2022-12-18T17:23:39;2.70;93.00
10812;DHT22;5458;51.496;7.334;2022-12-18T17:26:05;2.70;93.20
10812;DHT22;5458;51.496;7.334;2022-12-18T17:28:33;2.70;93.40
10812;DHT22;5458;51.496;7.334;2022-12-18T17:30:59;2.70;93.50
10812;DHT22;5458;51.496;7.334;2022-12-18T17:33:25;2.70;93.60
10812;DHT22;5458;51.496;7.334;2022-12-18T17:35:50;2.70;93.80
10812;DHT22;5458;51.496;7.334;2022-12-18T17:38:17;2.70;94.30
10812;DHT22;5458;51.496;7.334;2022-12-18T17:40:42;2.60;94.90
10812;DHT22;5458;51.496;7.334;2022-12-18T17:43:09;2.60;94.70
10812;DHT22;5458;51.496;7.334;2022-12-18T17:45:38;2.70;95.00
10812;DHT22;5458;51.496;7.334;2022-12-18T17:48:05;2.60;94.90
10812;DHT22;5458;51.496;7.334;2022-12-18T17:50:32;2.60;95.00
10812;DHT22;5458;51.496;7.334;2022-12-18T17:52:58;2.60;94.90
10812;DHT22;5458;51.496;7.334;2022-12-18T17:55:24;2.60;94.90
10812;DHT22;5458;51.496;7.334;2022-12-18T17:57:50;2.60;95.00